Portada
METAR-TAF:

METAR-TAF

Aeroports :

Newport, Vermont, Estats Units d'Amèrica

latitud: 44-53-20N, longitud: 072-13-45W, altitud: 283 m

Observació

L'informe es va fer fa 8 minuts, a les 21:55 UTC
Vent 6 kt del Sud/Sud-Oest
Temperatura -5°C
Humitat 86%
Pressió 1002 hPa
Visibilitat: 2.0 km
Núvols disperses a una alçada de 1400 ft
Cel cobert a una alçada de 2100 ft
neu

METAR: KEFK 282155Z AUTO 20006KT 1 1/4SM -SN SCT014 OVC021 M05/M07 A2959 RMK AO2 T10541071

Hora: 17:03 (22:03 UTC)


TAF: manca

Observacions i pronòstics meteorològics de més de 4000 aeroports (METAR i TAF).

Les estacions disponibles són els punts grocs i vermells al mapa.

Posi el ratolí al punt desitjat per veure el nom de l'estació.

Feu clic per veure les observacions i els pronòstics meteorològics.

Per canviar el mapa: feu clic els botons verds amb una creu de color negre per apropar; al botó verd amb un guió per allunyar la imatge; o en les fletxes verdes per a mapes adjacents.


METAR-TAF: